Cape Cod Natl Seashore, Massachusetts
Current Conditions -  °F | °C
As of 10:55 AM on Thursday 23 Oct 2014 (Local Time) from KPVC Reporting Station
Overcast Overcast  
Wind Chill: 63°   Ceiling: 2900
Heat Index: 63°   Visibility: 5mi
Dew Point:   Wind: 8mph
Humidity: 11%   Direction: 50°NE
Pressure: 29.56"   Gusts: NA
Location:  41.97°N, 70.01°W
Report Text: KPVC 231455Z 05007KT 5SM BKN029 OVC037 17/M14 A2956 RMK AO1 52003
Loading
Personal Weather Stations






























Interactive Weather Map
Tropical Storm Tracking
New forecast layout! Learn more

10-Day Weather Forecast

Advertisements
Track Severe Weather on mobile